sensor_id;sensor_type;location;lat;lon;timestamp;pressure;altitude;pressure_sealevel;temperature;humidity
65329;BME280;51941;52.210;5.158;2023-07-24T00:00:28;100358.66;;;18.59;100.00
65329;BME280;51941;52.210;5.158;2023-07-24T00:02:55;100355.47;;;18.57;100.00
65329;BME280;51941;52.210;5.158;2023-07-24T00:05:21;100350.09;;;18.57;100.00
65329;BME280;51941;52.210;5.158;2023-07-24T00:07:50;100360.63;;;18.53;100.00
65329;BME280;51941;52.210;5.158;2023-07-24T00:10:16;100346.13;;;18.54;100.00
65329;BME280;51941;52.210;5.158;2023-07-24T00:12:43;100356.06;;;18.53;100.00
65329;BME280;51941;52.210;5.158;2023-07-24T00:15:10;100358.72;;;18.53;100.00
65329;BME280;51941;52.210;5.158;2023-07-24T00:17:37;100352.28;;;18.54;100.00
65329;BME280;51941;52.210;5.158;2023-07-24T00:20:05;100350.69;;;18.53;100.00
65329;BME280;51941;52.210;5.158;2023-07-24T00:22:32;100342.97;;;18.52;100.00
65329;BME280;51941;52.210;5.158;2023-07-24T00:25:00;100354.38;;;18.58;100.00
65329;BME280;51941;52.210;5.158;2023-07-24T00:27:27;100347.44;;;18.57;100.00
65329;BME280;51941;52.210;5.158;2023-07-24T00:29:53;100339.69;;;18.55;100.00
65329;BME280;51941;52.210;5.158;2023-07-24T00:32:20;100331.44;;;18.51;100.00
65329;BME280;51941;52.210;5.158;2023-07-24T00:34:47;100325.00;;;18.52;100.00
65329;BME280;51941;52.210;5.158;2023-07-24T00:37:14;100332.25;;;18.52;100.00
65329;BME280;51941;52.210;5.158;2023-07-24T00:39:41;100321.31;;;18.48;100.00
65329;BME280;51941;52.210;5.158;2023-07-24T00:42:09;100330.44;;;18.47;100.00
65329;BME280;51941;52.210;5.158;2023-07-24T00:44:36;100329.91;;;18.45;100.00
65329;BME280;51941;52.210;5.158;2023-07-24T00:47:03;100312.84;;;18.41;100.00
65329;BME280;51941;52.210;5.158;2023-07-24T00:49:30;100314.78;;;18.36;100.00
65329;BME280;51941;52.210;5.158;2023-07-24T00:51:57;100313.00;;;18.31;100.00
65329;BME280;51941;52.210;5.158;2023-07-24T00:54:27;100314.19;;;18.25;100.00
65329;BME280;51941;52.210;5.158;2023-07-24T00:56:56;100307.31;;;18.19;100.00
65329;BME280;51941;52.210;5.158;2023-07-24T00:59:23;100305.81;;;18.13;100.00
65329;BME280;51941;52.210;5.158;2023-07-24T01:01:50;100300.03;;;18.06;100.00
65329;BME280;51941;52.210;5.158;2023-07-24T01:04:17;100292.88;;;18.01;100.00
65329;BME280;51941;52.210;5.158;2023-07-24T01:06:44;100298.03;;;17.98;100.00
65329;BME280;51941;52.210;5.158;2023-07-24T01:09:11;100312.56;;;17.92;100.00
65329;BME280;51941;52.210;5.158;2023-07-24T01:11:41;100306.41;;;17.91;100.00
65329;BME280;51941;52.210;5.158;2023-07-24T01:14:18;100289.88;;;17.89;100.00
65329;BME280;51941;52.210;5.158;2023-07-24T01:16:49;100294.72;;;17.87;100.00
65329;BME280;51941;52.210;5.158;2023-07-24T01:19:20;100298.78;;;17.85;100.00
65329;BME280;51941;52.210;5.158;2023-07-24T01:22:01;100314.31;;;17.83;100.00
65329;BME280;51941;52.210;5.158;2023-07-24T01:24:33;100308.19;;;17.82;100.00
65329;BME280;51941;52.210;5.158;2023-07-24T01:27:03;100305.81;;;17.81;100.00
65329;BME280;51941;52.210;5.158;2023-07-24T01:29:30;100308.69;;;17.84;100.00
65329;BME280;51941;52.210;5.158;2023-07-24T01:31:57;100303.03;;;17.86;100.00
65329;BME280;51941;52.210;5.158;2023-07-24T01:34:23;100298.47;;;17.86;100.00
65329;BME280;51941;52.210;5.158;2023-07-24T01:36:50;100302.97;;;17.91;100.00
65329;BME280;51941;52.210;5.158;2023-07-24T01:39:17;100295.50;;;17.88;100.00
65329;BME280;51941;52.210;5.158;2023-07-24T01:41:45;100304.06;;;17.90;100.00
65329;BME280;51941;52.210;5.158;2023-07-24T01:44:13;100288.56;;;17.87;100.00
65329;BME280;51941;52.210;5.158;2023-07-24T01:46:40;100287.78;;;17.86;100.00
65329;BME280;51941;52.210;5.158;2023-07-24T01:49:07;100292.84;;;17.88;100.00
65329;BME280;51941;52.210;5.158;2023-07-24T01:51:33;100282.94;;;17.88;100.00
65329;BME280;51941;52.210;5.158;2023-07-24T01:54:00;100280.81;;;17.85;100.00
65329;BME280;51941;52.210;5.158;2023-07-24T01:56:27;100276.34;;;17.81;100.00
65329;BME280;51941;52.210;5.158;2023-07-24T01:58:53;100273.53;;;17.72;100.00
65329;BME280;51941;52.210;5.158;2023-07-24T02:01:22;100278.38;;;17.70;100.00
65329;BME280;51941;52.210;5.158;2023-07-24T02:03:48;100282.94;;;17.69;100.00
65329;BME280;51941;52.210;5.158;2023-07-24T02:06:15;100278.69;;;17.68;100.00
65329;BME280;51941;52.210;5.158;2023-07-24T02:08:42;100271.97;;;17.71;100.00
65329;BME280;51941;52.210;5.158;2023-07-24T02:11:14;100264.72;;;17.71;100.00
65329;BME280;51941;52.210;5.158;2023-07-24T02:13:40;100270.56;;;17.73;100.00
65329;BME280;51941;52.210;5.158;2023-07-24T02:16:07;100269.78;;;17.73;100.00
65329;BME280;51941;52.210;5.158;2023-07-24T02:18:36;100260.75;;;17.69;100.00
65329;BME280;51941;52.210;5.158;2023-07-24T02:21:03;100255.09;;;17.70;100.00
65329;BME280;51941;52.210;5.158;2023-07-24T02:23:30;100249.47;;;17.72;100.00
65329;BME280;51941;52.210;5.158;2023-07-24T02:25:56;100258.28;;;17.72;100.00
65329;BME280;51941;52.210;5.158;2023-07-24T02:28:23;100254.50;;;17.73;100.00
65329;BME280;51941;52.210;5.158;2023-07-24T02:30:51;100240.81;;;17.75;100.00
65329;BME280;51941;52.210;5.158;2023-07-24T02:33:21;100237.84;;;17.76;100.00
65329;BME280;51941;52.210;5.158;2023-07-24T02:35:51;100236.88;;;17.72;100.00
65329;BME280;51941;52.210;5.158;2023-07-24T02:38:18;100225.03;;;17.73;100.00
65329;BME280;51941;52.210;5.158;2023-07-24T02:40:45;100222.97;;;17.70;100.00
65329;BME280;51941;52.210;5.158;2023-07-24T02:43:12;100228.03;;;17.72;100.00
65329;BME280;51941;52.210;5.158;2023-07-24T02:45:38;100234.47;;;17.71;100.00
65329;BME280;51941;52.210;5.158;2023-07-24T02:48:05;100237.16;;;17.71;100.00
65329;BME280;51941;52.210;5.158;2023-07-24T02:50:33;100239.84;;;17.71;100.00
65329;BME280;51941;52.210;5.158;2023-07-24T02:53:01;100233.19;;;17.68;100.00
65329;BME280;51941;52.210;5.158;2023-07-24T02:55:28;100235.75;;;17.73;100.00
65329;BME280;51941;52.210;5.158;2023-07-24T02:57:54;100242.41;;;17.76;100.00
65329;BME280;51941;52.210;5.158;2023-07-24T03:00:21;100239.44;;;17.77;100.00
65329;BME280;51941;52.210;5.158;2023-07-24T03:02:48;100224.56;;;17.71;100.00
65329;BME280;51941;52.210;5.158;2023-07-24T03:05:15;100239.97;;;17.79;100.00
65329;BME280;51941;52.210;5.158;2023-07-24T03:07:42;100240.75;;;17.80;100.00
65329;BME280;51941;52.210;5.158;2023-07-24T03:10:10;100245.31;;;17.79;100.00
65329;BME280;51941;52.210;5.158;2023-07-24T03:12:37;100240.25;;;17.78;100.00
65329;BME280;51941;52.210;5.158;2023-07-24T03:15:04;100240.25;;;17.78;100.00
65329;BME280;51941;52.210;5.158;2023-07-24T03:17:31;100230.91;;;17.75;100.00
65329;BME280;51941;52.210;5.158;2023-07-24T03:19:59;100230.91;;;17.75;100.00
65329;BME280;51941;52.210;5.158;2023-07-24T03:22:34;100224.47;;;17.76;100.00
65329;BME280;51941;52.210;5.158;2023-07-24T03:25:01;100225.22;;;17.82;100.00
65329;BME280;51941;52.210;5.158;2023-07-24T03:27:29;100219.25;;;17.85;100.00
65329;BME280;51941;52.210;5.158;2023-07-24T03:29:56;100213.09;;;17.85;100.00
65329;BME280;51941;52.210;5.158;2023-07-24T03:32:22;100216.50;;;17.90;100.00
65329;BME280;51941;52.210;5.158;2023-07-24T03:34:52;100217.28;;;17.91;100.00
65329;BME280;51941;52.210;5.158;2023-07-24T03:37:19;100225.31;;;17.91;100.00
65329;BME280;51941;52.210;5.158;2023-07-24T03:39:46;100222.13;;;17.89;100.00
65329;BME280;51941;52.210;5.158;2023-07-24T03:42:24;100211.72;;;17.87;100.00
65329;BME280;51941;52.210;5.158;2023-07-24T03:44:53;100196.75;;;17.86;100.00
65329;BME280;51941;52.210;5.158;2023-07-24T03:47:20;100210.41;;;17.85;100.00
65329;BME280;51941;52.210;5.158;2023-07-24T03:49:46;100228.88;;;17.86;100.00
65329;BME280;51941;52.210;5.158;2023-07-24T03:52:13;100214.78;;;17.81;100.00
65329;BME280;51941;52.210;5.158;2023-07-24T03:54:40;100218.25;;;17.81;100.00
65329;BME280;51941;52.210;5.158;2023-07-24T03:57:07;100222.59;;;17.77;100.00
65329;BME280;51941;52.210;5.158;2023-07-24T03:59:33;100227.16;;;17.76;100.00
65329;BME280;51941;52.210;5.158;2023-07-24T04:02:02;100213.25;;;17.74;100.00
65329;BME280;51941;52.210;5.158;2023-07-24T04:04:29;100216.25;;;17.73;100.00
65329;BME280;51941;52.210;5.158;2023-07-24T04:06:55;100220.81;;;17.72;100.00
65329;BME280;51941;52.210;5.158;2023-07-24T04:09:22;100211.75;;;17.68;100.00
65329;BME280;51941;52.210;5.158;2023-07-24T04:11:49;100220.88;;;17.67;100.00
65329;BME280;51941;52.210;5.158;2023-07-24T04:14:16;100206.41;;;17.68;100.00
65329;BME280;51941;52.210;5.158;2023-07-24T04:16:42;100220.38;;;17.65;100.00
65329;BME280;51941;52.210;5.158;2023-07-24T04:19:11;100208.88;;;17.65;100.00
65329;BME280;51941;52.210;5.158;2023-07-24T04:21:38;100213.44;;;17.64;100.00
65329;BME280;51941;52.210;5.158;2023-07-24T04:24:05;100210.78;;;17.64;100.00
65329;BME280;51941;52.210;5.158;2023-07-24T04:26:32;100208.66;;;17.61;100.00
65329;BME280;51941;52.210;5.158;2023-07-24T04:28:59;100208.44;;;17.58;100.00
65329;BME280;51941;52.210;5.158;2023-07-24T04:31:25;100215.41;;;17.59;100.00
65329;BME280;51941;52.210;5.158;2023-07-24T04:33:52;100212.50;;;17.55;100.00
65329;BME280;51941;52.210;5.158;2023-07-24T04:36:20;100210.09;;;17.54;100.00
65329;BME280;51941;52.210;5.158;2023-07-24T04:38:47;100208.22;;;17.54;100.00
65329;BME280;51941;52.210;5.158;2023-07-24T04:41:14;100214.03;;;17.61;100.00
65329;BME280;51941;52.210;5.158;2023-07-24T04:43:41;100211.34;;;17.61;100.00
65329;BME280;51941;52.210;5.158;2023-07-24T04:46:08;100212.94;;;17.62;100.00
65329;BME280;51941;52.210;5.158;2023-07-24T04:48:34;100217.78;;;17.60;100.00
65329;BME280;51941;52.210;5.158;2023-07-24T04:51:01;100212.72;;;17.59;100.00
65329;BME280;51941;52.210;5.158;2023-07-24T04:53:30;100203.16;;;17.53;100.00
65329;BME280;51941;52.210;5.158;2023-07-24T04:55:56;100210.97;;;17.49;100.00
65329;BME280;51941;52.210;5.158;2023-07-24T04:58:23;100209.75;;;17.41;100.00
65329;BME280;51941;52.210;5.158;2023-07-24T05:00:50;100201.59;;;17.33;100.00
65329;BME280;51941;52.210;5.158;2023-07-24T05:03:16;100215.25;;;17.31;100.00
65329;BME280;51941;52.210;5.158;2023-07-24T05:05:47;100212.84;;;17.30;100.00
65329;BME280;51941;52.210;5.158;2023-07-24T05:08:14;100211.78;;;17.31;100.00
65329;BME280;51941;52.210;5.158;2023-07-24T05:10:42;100215.19;;;17.36;100.00
65329;BME280;51941;52.210;5.158;2023-07-24T05:13:09;100224.94;;;17.46;100.00
65329;BME280;51941;52.210;5.158;2023-07-24T05:15:35;100229.06;;;17.57;100.00
65329;BME280;51941;52.210;5.158;2023-07-24T05:18:02;100228.91;;;17.67;100.00
65329;BME280;51941;52.210;5.158;2023-07-24T05:20:30;100227.44;;;17.75;100.00
65329;BME280;51941;52.210;5.158;2023-07-24T05:22:57;100226.88;;;17.78;100.00
65329;BME280;51941;52.210;5.158;2023-07-24T05:25:24;100224.03;;;17.88;100.00
65329;BME280;51941;52.210;5.158;2023-07-24T05:27:52;100224.44;;;17.95;100.00
65329;BME280;51941;52.210;5.158;2023-07-24T05:30:19;100224.53;;;18.04;100.00
65329;BME280;51941;52.210;5.158;2023-07-24T05:32:45;100224.66;;;18.12;100.00
65329;BME280;51941;52.210;5.158;2023-07-24T05:35:12;100219.72;;;18.20;100.00
65329;BME280;51941;52.210;5.158;2023-07-24T05:37:39;100224.31;;;18.33;100.00
65329;BME280;51941;52.210;5.158;2023-07-24T05:40:07;100215.69;;;18.49;100.00
65329;BME280;51941;52.210;5.158;2023-07-24T05:42:34;100218.56;;;18.67;100.00
65329;BME280;51941;52.210;5.158;2023-07-24T05:45:07;100212.50;;;18.75;100.00
65329;BME280;51941;52.210;5.158;2023-07-24T05:47:34;100218.88;;;18.79;100.00
65329;BME280;51941;52.210;5.158;2023-07-24T05:50:01;100217.66;;;18.85;100.00
65329;BME280;51941;52.210;5.158;2023-07-24T05:52:27;100204.63;;;18.92;100.00
65329;BME280;51941;52.210;5.158;2023-07-24T05:54:54;100225.38;;;19.14;100.00
65329;BME280;51941;52.210;5.158;2023-07-24T05:57:21;100208.63;;;19.31;100.00
65329;BME280;51941;52.210;5.158;2023-07-24T05:59:48;100211.13;;;19.49;100.00
65329;BME280;51941;52.210;5.158;2023-07-24T06:02:17;100211.09;;;19.63;100.00
65329;BME280;51941;52.210;5.158;2023-07-24T06:04:44;100225.66;;;19.71;100.00
65329;BME280;51941;52.210;5.158;2023-07-24T06:07:11;100213.47;;;19.64;100.00
65329;BME280;51941;52.210;5.158;2023-07-24T06:09:37;100207.53;;;19.54;100.00
65329;BME280;51941;52.210;5.158;2023-07-24T06:12:05;100215.91;;;19.52;100.00
65329;BME280;51941;52.210;5.158;2023-07-24T06:14:31;100209.25;;;19.50;100.00
65329;BME280;51941;52.210;5.158;2023-07-24T06:16:58;100217.56;;;19.62;100.00
65329;BME280;51941;52.210;5.158;2023-07-24T06:19:26;100223.53;;;19.81;100.00
65329;BME280;51941;52.210;5.158;2023-07-24T06:21:53;100222.53;;;19.99;100.00
65329;BME280;51941;52.210;5.158;2023-07-24T06:24:20;100212.31;;;20.10;100.00
65329;BME280;51941;52.210;5.158;2023-07-24T06:26:49;100218.59;;;20.28;100.00
65329;BME280;51941;52.210;5.158;2023-07-24T06:29:15;100229.41;;;20.45;100.00
65329;BME280;51941;52.210;5.158;2023-07-24T06:31:42;100230.38;;;20.58;100.00
65329;BME280;51941;52.210;5.158;2023-07-24T06:34:09;100225.50;;;20.60;100.00
65329;BME280;51941;52.210;5.158;2023-07-24T06:36:37;100218.97;;;20.44;100.00
65329;BME280;51941;52.210;5.158;2023-07-24T06:39:04;100219.72;;;20.35;100.00
65329;BME280;51941;52.210;5.158;2023-07-24T06:41:30;100239.13;;;20.24;100.00
65329;BME280;51941;52.210;5.158;2023-07-24T06:43:58;100233.38;;;20.17;100.00
65329;BME280;51941;52.210;5.158;2023-07-24T06:46:25;100228.91;;;20.12;100.00
65329;BME280;51941;52.210;5.158;2023-07-24T06:48:52;100230.78;;;20.12;100.00
65329;BME280;51941;52.210;5.158;2023-07-24T06:51:18;100226.00;;;20.00;100.00
65329;BME280;51941;52.210;5.158;2023-07-24T06:53:46;100228.50;;;19.96;100.00
65329;BME280;51941;52.210;5.158;2023-07-24T06:56:13;100241.44;;;19.94;100.00
65329;BME280;51941;52.210;5.158;2023-07-24T06:58:40;100241.44;;;19.94;100.00
65329;BME280;51941;52.210;5.158;2023-07-24T07:01:07;100232.13;;;19.92;100.00
65329;BME280;51941;52.210;5.158;2023-07-24T07:03:33;100230.53;;;19.91;100.00
65329;BME280;51941;52.210;5.158;2023-07-24T07:06:01;100236.81;;;20.09;100.00
65329;BME280;51941;52.210;5.158;2023-07-24T07:08:28;100235.19;;;20.30;100.00
65329;BME280;51941;52.210;5.158;2023-07-24T07:10:57;100238.09;;;20.42;100.00
65329;BME280;51941;52.210;5.158;2023-07-24T07:13:24;100235.59;;;20.46;100.00
65329;BME280;51941;52.210;5.158;2023-07-24T07:15:51;100237.53;;;20.62;100.00
65329;BME280;51941;52.210;5.158;2023-07-24T07:18:17;100229.22;;;20.90;100.00
65329;BME280;51941;52.210;5.158;2023-07-24T07:20:48;100228.63;;;21.27;100.00
65329;BME280;51941;52.210;5.158;2023-07-24T07:23:15;100235.78;;;21.58;100.00
65329;BME280;51941;52.210;5.158;2023-07-24T07:25:42;100231.97;;;21.84;100.00
65329;BME280;51941;52.210;5.158;2023-07-24T07:28:12;100223.34;;;22.00;100.00
65329;BME280;51941;52.210;5.158;2023-07-24T07:30:38;100230.00;;;22.11;100.00
65329;BME280;51941;52.210;5.158;2023-07-24T07:33:05;100228.69;;;22.17;100.00
65329;BME280;51941;52.210;5.158;2023-07-24T07:35:32;100234.84;;;22.26;100.00
65329;BME280;51941;52.210;5.158;2023-07-24T07:37:59;100231.03;;;22.27;100.00
65329;BME280;51941;52.210;5.158;2023-07-24T07:40:26;100216.06;;;22.47;100.00
65329;BME280;51941;52.210;5.158;2023-07-24T07:42:53;100214.34;;;23.22;100.00
65329;BME280;51941;52.210;5.158;2023-07-24T07:45:21;100210.03;;;23.95;97.72
65329;BME280;51941;52.210;5.158;2023-07-24T07:47:48;100218.75;;;24.62;93.26
65329;BME280;51941;52.210;5.158;2023-07-24T07:50:15;100214.81;;;25.23;88.17
65329;BME280;51941;52.210;5.158;2023-07-24T07:52:42;100211.06;;;25.40;85.32
65329;BME280;51941;52.210;5.158;2023-07-24T07:55:09;100208.25;;;25.65;82.91
65329;BME280;51941;52.210;5.158;2023-07-24T07:57:37;100216.97;;;26.02;81.25
65329;BME280;51941;52.210;5.158;2023-07-24T08:00:05;100210.88;;;25.77;77.52
65329;BME280;51941;52.210;5.158;2023-07-24T08:02:33;100208.41;;;25.16;77.44
65329;BME280;51941;52.210;5.158;2023-07-24T08:05:00;100210.97;;;24.60;80.18
65329;BME280;51941;52.210;5.158;2023-07-24T08:07:27;100201.03;;;24.16;81.99
65329;BME280;51941;52.210;5.158;2023-07-24T08:09:54;100208.47;;;23.73;84.24
65329;BME280;51941;52.210;5.158;2023-07-24T08:12:21;100206.03;;;23.48;85.83
65329;BME280;51941;52.210;5.158;2023-07-24T08:14:48;100196.63;;;23.66;86.47
65329;BME280;51941;52.210;5.158;2023-07-24T08:17:15;100200.84;;;24.33;84.54
65329;BME280;51941;52.210;5.158;2023-07-24T08:19:43;100196.19;;;24.70;80.62
65329;BME280;51941;52.210;5.158;2023-07-24T08:22:10;100205.19;;;24.86;80.16
65329;BME280;51941;52.210;5.158;2023-07-24T08:24:37;100199.69;;;24.70;76.99
65329;BME280;51941;52.210;5.158;2023-07-24T08:27:04;100214.00;;;24.22;77.88
65329;BME280;51941;52.210;5.158;2023-07-24T08:29:31;100220.16;;;23.98;81.51
65329;BME280;51941;52.210;5.158;2023-07-24T08:31:58;100218.47;;;23.94;83.19
65329;BME280;51941;52.210;5.158;2023-07-24T08:34:25;100222.09;;;24.10;83.01
65329;BME280;51941;52.210;5.158;2023-07-24T08:36:53;100212.72;;;23.95;82.31
65329;BME280;51941;52.210;5.158;2023-07-24T08:39:20;100213.22;;;23.77;83.92
65329;BME280;51941;52.210;5.158;2023-07-24T08:41:47;100222.22;;;23.81;85.11
65329;BME280;51941;52.210;5.158;2023-07-24T08:44:13;100205.34;;;24.29;83.70
65329;BME280;51941;52.210;5.158;2023-07-24T08:46:41;100210.88;;;24.69;82.25
65329;BME280;51941;52.210;5.158;2023-07-24T08:49:11;100210.41;;;24.79;82.09
65329;BME280;51941;52.210;5.158;2023-07-24T08:51:40;100209.28;;;24.80;81.21
65329;BME280;51941;52.210;5.158;2023-07-24T08:54:09;100203.66;;;24.48;81.23
65329;BME280;51941;52.210;5.158;2023-07-24T08:56:36;100208.69;;;24.26;82.71
65329;BME280;51941;52.210;5.158;2023-07-24T08:59:03;100201.81;;;24.04;83.92
65329;BME280;51941;52.210;5.158;2023-07-24T09:01:30;100206.00;;;23.81;84.26
65329;BME280;51941;52.210;5.158;2023-07-24T09:03:56;100200.13;;;23.66;85.33
65329;BME280;51941;52.210;5.158;2023-07-24T09:06:23;100197.44;;;23.46;87.06
65329;BME280;51941;52.210;5.158;2023-07-24T09:08:53;100197.53;;;23.37;87.92
65329;BME280;51941;52.210;5.158;2023-07-24T09:11:22;100202.75;;;23.21;88.57
65329;BME280;51941;52.210;5.158;2023-07-24T09:13:48;100202.59;;;22.97;89.92
65329;BME280;51941;52.210;5.158;2023-07-24T09:16:23;100196.88;;;22.98;90.64
65329;BME280;51941;52.210;5.158;2023-07-24T09:18:50;100193.66;;;23.05;90.20
65329;BME280;51941;52.210;5.158;2023-07-24T09:21:27;100189.31;;;23.33;88.73
65329;BME280;51941;52.210;5.158;2023-07-24T09:23:54;100193.06;;;23.41;87.47
65329;BME280;51941;52.210;5.158;2023-07-24T09:26:22;100202.34;;;23.31;85.87
65329;BME280;51941;52.210;5.158;2023-07-24T09:28:53;100209.66;;;23.31;86.45
65329;BME280;51941;52.210;5.158;2023-07-24T09:31:20;100200.84;;;23.22;87.02
65329;BME280;51941;52.210;5.158;2023-07-24T09:33:47;100191.66;;;23.14;86.45
65329;BME280;51941;52.210;5.158;2023-07-24T09:36:14;100179.50;;;23.08;86.83
65329;BME280;51941;52.210;5.158;2023-07-24T09:38:41;100171.59;;;23.03;87.38
65329;BME280;51941;52.210;5.158;2023-07-24T09:41:08;100167.44;;;23.06;88.73
65329;BME280;51941;52.210;5.158;2023-07-24T09:43:36;100173.63;;;23.06;89.79
65329;BME280;51941;52.210;5.158;2023-07-24T09:46:04;100172.63;;;23.11;90.37
65329;BME280;51941;52.210;5.158;2023-07-24T09:48:32;100169.03;;;23.07;90.71
65329;BME280;51941;52.210;5.158;2023-07-24T09:51:00;100163.31;;;23.08;90.91
65329;BME280;51941;52.210;5.158;2023-07-24T09:53:31;100177.72;;;23.33;90.95
65329;BME280;51941;52.210;5.158;2023-07-24T09:56:00;100173.75;;;23.51;90.13
65329;BME280;51941;52.210;5.158;2023-07-24T09:58:28;100167.38;;;23.68;88.37
65329;BME280;51941;52.210;5.158;2023-07-24T10:00:57;100170.31;;;23.75;87.57
65329;BME280;51941;52.210;5.158;2023-07-24T10:03:25;100170.38;;;23.99;87.21
65329;BME280;51941;52.210;5.158;2023-07-24T10:05:52;100175.00;;;24.35;85.77
65329;BME280;51941;52.210;5.158;2023-07-24T10:08:20;100170.84;;;24.62;83.09
65329;BME280;51941;52.210;5.158;2023-07-24T10:10:47;100173.06;;;24.84;81.36
65329;BME280;51941;52.210;5.158;2023-07-24T10:13:17;100161.13;;;24.85;79.06
65329;BME280;51941;52.210;5.158;2023-07-24T10:15:46;100168.19;;;24.90;79.05
65329;BME280;51941;52.210;5.158;2023-07-24T10:18:16;100171.09;;;24.97;78.30
65329;BME280;51941;52.210;5.158;2023-07-24T10:20:44;100173.38;;;24.95;76.63
65329;BME280;51941;52.210;5.158;2023-07-24T10:23:16;100175.88;;;24.88;76.62
65329;BME280;51941;52.210;5.158;2023-07-24T10:25:44;100169.38;;;24.77;76.51
65329;BME280;51941;52.210;5.158;2023-07-24T10:28:12;100167.69;;;24.60;77.96
65329;BME280;51941;52.210;5.158;2023-07-24T10:30:42;100165.88;;;24.52;78.63
65329;BME280;51941;52.210;5.158;2023-07-24T10:33:10;100172.63;;;24.34;78.59
65329;BME280;51941;52.210;5.158;2023-07-24T10:35:40;100163.63;;;24.30;79.44
65329;BME280;51941;52.210;5.158;2023-07-24T10:38:07;100163.31;;;24.31;80.32
65329;BME280;51941;52.210;5.158;2023-07-24T10:40:34;100147.84;;;24.44;80.13
65329;BME280;51941;52.210;5.158;2023-07-24T10:43:05;100141.88;;;24.51;79.15
65329;BME280;51941;52.210;5.158;2023-07-24T10:45:45;100142.09;;;24.45;79.71
65329;BME280;51941;52.210;5.158;2023-07-24T10:48:13;100144.59;;;24.26;81.18
65329;BME280;51941;52.210;5.158;2023-07-24T10:50:42;100150.00;;;24.14;83.31
65329;BME280;51941;52.210;5.158;2023-07-24T10:53:09;100156.53;;;24.01;83.79
65329;BME280;51941;52.210;5.158;2023-07-24T10:55:36;100162.22;;;23.87;84.52
65329;BME280;51941;52.210;5.158;2023-07-24T10:58:03;100160.50;;;23.70;85.77
65329;BME280;51941;52.210;5.158;2023-07-24T11:00:30;100147.09;;;23.62;86.24
65329;BME280;51941;52.210;5.158;2023-07-24T11:02:57;100147.38;;;23.48;86.88
65329;BME280;51941;52.210;5.158;2023-07-24T11:05:23;100160.19;;;23.39;87.14
65329;BME280;51941;52.210;5.158;2023-07-24T11:07:52;100171.41;;;23.29;89.67
65329;BME280;51941;52.210;5.158;2023-07-24T11:10:20;100172.91;;;23.18;91.15
65329;BME280;51941;52.210;5.158;2023-07-24T11:12:47;100156.72;;;23.18;89.28
65329;BME280;51941;52.210;5.158;2023-07-24T11:15:15;100161.94;;;23.23;88.86
65329;BME280;51941;52.210;5.158;2023-07-24T11:17:42;100163.09;;;23.34;87.99
65329;BME280;51941;52.210;5.158;2023-07-24T11:20:11;100155.91;;;23.38;84.44
65329;BME280;51941;52.210;5.158;2023-07-24T11:22:39;100163.69;;;23.40;85.07
65329;BME280;51941;52.210;5.158;2023-07-24T11:25:08;100159.28;;;23.35;84.27
65329;BME280;51941;52.210;5.158;2023-07-24T11:27:39;100154.44;;;23.20;83.76
65329;BME280;51941;52.210;5.158;2023-07-24T11:30:08;100166.91;;;23.12;85.58
65329;BME280;51941;52.210;5.158;2023-07-24T11:32:35;100158.56;;;23.26;85.74
65329;BME280;51941;52.210;5.158;2023-07-24T11:35:02;100166.75;;;23.50;84.79
65329;BME280;51941;52.210;5.158;2023-07-24T11:37:29;100155.91;;;23.71;84.17
65329;BME280;51941;52.210;5.158;2023-07-24T11:39:57;100164.75;;;23.92;82.95
65329;BME280;51941;52.210;5.158;2023-07-24T11:42:27;100151.81;;;23.98;80.89
65329;BME280;51941;52.210;5.158;2023-07-24T11:44:54;100162.84;;;24.17;80.38
65329;BME280;51941;52.210;5.158;2023-07-24T11:47:21;100161.28;;;24.28;79.18
65329;BME280;51941;52.210;5.158;2023-07-24T11:49:57;100157.41;;;24.54;77.69
65329;BME280;51941;52.210;5.158;2023-07-24T11:52:24;100156.28;;;24.55;75.58
65329;BME280;51941;52.210;5.158;2023-07-24T11:54:57;100171.72;;;24.54;76.19
65329;BME280;51941;52.210;5.158;2023-07-24T11:57:28;100162.72;;;24.38;74.86
65329;BME280;51941;52.210;5.158;2023-07-24T11:59:55;100168.59;;;24.28;75.36
65329;BME280;51941;52.210;5.158;2023-07-24T12:02:25;100168.03;;;24.22;75.77
65329;BME280;51941;52.210;5.158;2023-07-24T12:04:56;100175.00;;;24.11;77.21
65329;BME280;51941;52.210;5.158;2023-07-24T12:07:30;100179.97;;;24.21;77.73
65329;BME280;51941;52.210;5.158;2023-07-24T12:09:57;100162.84;;;24.29;78.06
65329;BME280;51941;52.210;5.158;2023-07-24T12:12:24;100161.47;;;24.35;78.38
65329;BME280;51941;52.210;5.158;2023-07-24T12:14:53;100155.41;;;24.02;78.13
65329;BME280;51941;52.210;5.158;2023-07-24T12:17:20;100155.25;;;23.86;79.26
65329;BME280;51941;52.210;5.158;2023-07-24T12:19:46;100155.72;;;23.43;82.67
65329;BME280;51941;52.210;5.158;2023-07-24T12:22:14;100158.94;;;23.16;85.42
65329;BME280;51941;52.210;5.158;2023-07-24T12:24:40;100150.19;;;22.77;87.76
65329;BME280;51941;52.210;5.158;2023-07-24T12:27:07;100160.78;;;22.61;90.04
65329;BME280;51941;52.210;5.158;2023-07-24T12:29:34;100172.19;;;22.29;93.52
65329;BME280;51941;52.210;5.158;2023-07-24T12:32:02;100187.88;;;21.89;96.98
65329;BME280;51941;52.210;5.158;2023-07-24T12:34:29;100191.34;;;21.98;96.96
65329;BME280;51941;52.210;5.158;2023-07-24T12:36:56;100187.84;;;21.98;97.98
65329;BME280;51941;52.210;5.158;2023-07-24T12:39:22;100180.56;;;21.98;98.22
65329;BME280;51941;52.210;5.158;2023-07-24T12:41:49;100189.44;;;21.99;97.54
65329;BME280;51941;52.210;5.158;2023-07-24T12:44:16;100184.19;;;22.02;97.83